createdAt,value
2018-12-27T00:01:46.760Z,101848.80
2018-12-27T00:04:34.368Z,101851.47
2018-12-27T00:07:02.852Z,101851.59
2018-12-27T00:09:50.685Z,101844.09
2018-12-27T00:12:19.170Z,101843.79
2018-12-27T00:15:06.770Z,101847.89
2018-12-27T00:17:54.499Z,101851.77
2018-12-27T00:20:22.989Z,101845.17
2018-12-27T00:22:51.466Z,101841.21
2018-12-27T00:25:20.569Z,101827.00
2018-12-27T00:27:50.162Z,101827.23
2018-12-27T00:30:18.784Z,101821.48
2018-12-27T00:33:06.508Z,101808.97
2018-12-27T00:35:35.122Z,101808.59
2018-12-27T00:38:03.725Z,101801.45
2018-12-27T00:40:51.459Z,101800.36
2018-12-27T00:43:20.076Z,101799.41
2018-12-27T00:48:23.107Z,101798.45
2018-12-27T00:50:51.722Z,101801.28
2018-12-27T00:56:07.902Z,101810.97
2018-12-27T01:04:05.464Z,101803.22
2018-12-27T01:06:53.266Z,101803.16
2018-12-27T01:09:41.083Z,101801.55
2018-12-27T01:12:09.796Z,101791.73
2018-12-27T01:14:38.398Z,101782.25
2018-12-27T01:17:07.009Z,101783.52
2018-12-27T01:19:35.629Z,101781.97
2018-12-27T01:22:23.502Z,101771.86
2018-12-27T01:25:11.318Z,101775.70
2018-12-27T01:27:59.120Z,101782.72
2018-12-27T01:30:46.999Z,101773.54
2018-12-27T01:33:18.781Z,101768.86
2018-12-27T01:38:39.332Z,101770.38
2018-12-27T01:41:27.146Z,101770.65
2018-12-27T01:43:55.759Z,101771.80
2018-12-27T01:46:43.502Z,101777.91
2018-12-27T01:49:31.547Z,101770.39
2018-12-27T01:52:00.172Z,101765.50
2018-12-27T01:57:16.356Z,101757.48
2018-12-27T01:59:44.980Z,101758.87
2018-12-27T02:02:32.788Z,101752.03
2018-12-27T02:05:20.527Z,101750.75
2018-12-27T02:08:08.277Z,101745.19
2018-12-27T02:10:37.188Z,101745.66
2018-12-27T02:13:05.805Z,101735.88
2018-12-27T02:15:34.461Z,101741.44
2018-12-27T02:18:03.091Z,101744.33
2018-12-27T02:20:50.830Z,101738.98
2018-12-27T02:23:19.444Z,101738.70
2018-12-27T02:26:07.258Z,101734.38
2018-12-27T02:28:35.870Z,101729.06
2018-12-27T02:31:23.608Z,101730.84
2018-12-27T02:39:32.781Z,101741.55
2018-12-27T02:42:20.524Z,101737.09
2018-12-27T02:45:08.256Z,101725.87
2018-12-27T02:47:36.878Z,101713.76
2018-12-27T02:50:05.493Z,101715.64
2018-12-27T02:52:53.314Z,101720.94
2018-12-27T02:55:21.981Z,101730.94
2018-12-27T02:58:10.053Z,101716.81
2018-12-27T03:00:57.790Z,101711.56
2018-12-27T03:03:45.514Z,101710.18
2018-12-27T03:06:33.247Z,101709.80
2018-12-27T03:09:21.055Z,101701.39
2018-12-27T03:11:49.682Z,101711.52
2018-12-27T03:14:37.633Z,101707.11
2018-12-27T03:17:06.255Z,101711.37
2018-12-27T03:19:34.864Z,101713.30
2018-12-27T03:22:03.479Z,101709.16
2018-12-27T03:27:19.667Z,101696.92
2018-12-27T03:32:55.049Z,101701.09
2018-12-27T03:35:42.770Z,101699.22
2018-12-27T03:38:30.591Z,101693.66
2018-12-27T03:41:18.331Z,101694.69
2018-12-27T03:44:06.134Z,101696.04
2018-12-27T03:46:53.874Z,101688.77
2018-12-27T03:49:22.484Z,101685.56
2018-12-27T03:52:10.223Z,101689.75
2018-12-27T03:54:38.826Z,101681.99
2018-12-27T03:57:26.643Z,101685.06
2018-12-27T04:00:14.452Z,101679.83
2018-12-27T04:03:02.192Z,101676.75
2018-12-27T04:08:37.573Z,101679.09
2018-12-27T04:11:25.386Z,101673.34
2018-12-27T04:14:13.207Z,101680.98
2018-12-27T04:16:41.697Z,101677.36
2018-12-27T04:19:10.188Z,101680.69
2018-12-27T04:21:38.672Z,101681.00
2018-12-27T04:24:26.399Z,101679.84
2018-12-27T04:26:54.888Z,101679.48
2018-12-27T04:29:23.370Z,101679.02
2018-12-27T04:32:31.776Z,101678.73
2018-12-27T04:35:40.162Z,101680.59
2018-12-27T04:38:27.768Z,101678.76
2018-12-27T04:40:56.251Z,101667.16
2018-12-27T04:46:19.398Z,101665.11
2018-12-27T04:49:07.079Z,101676.22
2018-12-27T04:51:54.597Z,101671.23
2018-12-27T04:54:42.423Z,101667.19
2018-12-27T04:57:30.029Z,101667.11
2018-12-27T04:59:58.507Z,101674.03
2018-12-27T05:02:46.122Z,101664.39
2018-12-27T05:05:14.606Z,101668.42
2018-12-27T05:08:02.450Z,101669.75
2018-12-27T05:10:30.922Z,101664.84
2018-12-27T05:12:59.411Z,101654.56
2018-12-27T05:15:47.134Z,101654.41
2018-12-27T05:18:34.870Z,101652.16
2018-12-27T05:21:03.350Z,101650.19
2018-12-27T05:23:51.083Z,101650.20
2018-12-27T05:29:26.130Z,101654.89
2018-12-27T05:31:54.612Z,101656.36
2018-12-27T05:34:26.365Z,101654.86
2018-12-27T05:37:12.427Z,101652.60
2018-12-27T05:40:00.167Z,101658.58
2018-12-27T05:42:47.896Z,101660.80
2018-12-27T05:45:16.386Z,101662.91
2018-12-27T05:48:03.997Z,101670.01
2018-12-27T05:53:21.563Z,101657.25
2018-12-27T05:55:50.043Z,101664.33
2018-12-27T05:58:18.534Z,101661.41
2018-12-27T06:00:47.015Z,101660.02
2018-12-27T06:03:34.622Z,101662.70
2018-12-27T06:06:03.103Z,101663.65
2018-12-27T06:08:50.848Z,101656.33
2018-12-27T06:11:19.325Z,101660.08
2018-12-27T06:14:06.932Z,101657.48
2018-12-27T06:16:35.416Z,101667.94
2018-12-27T06:22:16.406Z,101661.62
2018-12-27T06:24:44.891Z,101659.91
2018-12-27T06:27:32.618Z,101672.34
2018-12-27T06:30:02.477Z,101669.30
2018-12-27T06:32:31.332Z,101670.20
2018-12-27T06:34:59.810Z,101671.36
2018-12-27T06:37:47.632Z,101670.96
2018-12-27T06:40:16.119Z,101667.45
2018-12-27T06:42:44.596Z,101671.31
2018-12-27T06:45:32.331Z,101672.73
2018-12-27T06:48:19.925Z,101673.95
2018-12-27T06:51:07.666Z,101672.30
2018-12-27T06:53:36.152Z,101667.31
2018-12-27T06:58:38.373Z,101668.82
2018-12-27T07:03:40.734Z,101672.11
2018-12-27T07:06:28.343Z,101669.17
2018-12-27T07:08:56.819Z,101665.70
2018-12-27T07:11:25.310Z,101674.26
2018-12-27T07:14:13.127Z,101665.80
2018-12-27T07:17:00.863Z,101671.44
2018-12-27T07:19:29.346Z,101670.98
2018-12-27T07:24:31.687Z,101671.71
2018-12-27T07:27:00.176Z,101675.91
2018-12-27T07:29:47.998Z,101668.92
2018-12-27T07:34:56.554Z,101675.34
2018-12-27T07:37:39.901Z,101678.84
2018-12-27T07:40:08.383Z,101677.80
2018-12-27T07:42:56.128Z,101673.63
2018-12-27T07:45:24.625Z,101681.71
2018-12-27T07:47:53.102Z,101682.30
2018-12-27T07:50:40.834Z,101676.75
2018-12-27T07:53:09.316Z,101682.59
2018-12-27T07:58:12.043Z,101675.34
2018-12-27T08:00:40.615Z,101677.16
2018-12-27T08:03:09.099Z,101677.31
2018-12-27T08:05:56.840Z,101680.53
2018-12-27T08:08:25.323Z,101677.23
2018-12-27T08:10:53.812Z,101676.60
2018-12-27T08:13:22.303Z,101675.80
2018-12-27T08:16:09.909Z,101671.70
2018-12-27T08:18:38.383Z,101668.01
2018-12-27T08:21:25.989Z,101667.70
2018-12-27T08:24:13.585Z,101668.23
2018-12-27T08:27:01.419Z,101665.10
2018-12-27T08:32:17.352Z,101656.11
2018-12-27T08:37:33.302Z,101652.94
2018-12-27T08:40:20.903Z,101650.74
2018-12-27T08:42:49.408Z,101654.43
2018-12-27T08:45:37.148Z,101651.22
2018-12-27T08:48:24.881Z,101648.59
2018-12-27T08:51:12.612Z,101646.26
2018-12-27T08:53:41.134Z,101642.88
2018-12-27T08:56:09.658Z,101649.33
2018-12-27T08:58:57.503Z,101648.33
2018-12-27T09:04:13.448Z,101644.52
2018-12-27T09:06:41.978Z,101644.75
2018-12-27T09:09:10.473Z,101642.69
2018-12-27T09:11:39.002Z,101643.82
2018-12-27T09:14:26.819Z,101648.06
2018-12-27T09:16:55.337Z,101646.52
2018-12-27T09:19:23.850Z,101653.56
2018-12-27T09:22:11.674Z,101647.44
2018-12-27T09:24:40.185Z,101648.58
2018-12-27T09:27:08.703Z,101646.22
2018-12-27T09:29:37.206Z,101651.34
2018-12-27T09:32:05.704Z,101650.41
2018-12-27T09:34:53.583Z,101651.09
2018-12-27T09:39:56.068Z,101648.52
2018-12-27T09:44:58.505Z,101652.57
2018-12-27T09:50:20.185Z,101647.20
2018-12-27T09:53:07.811Z,101636.21
2018-12-27T09:55:36.283Z,101636.75
2018-12-27T09:58:04.803Z,101633.91
2018-12-27T10:00:33.250Z,101640.06
2018-12-27T10:03:01.739Z,101644.88
2018-12-27T10:05:33.762Z,101636.47
2018-12-27T10:08:00.435Z,101637.69
2018-12-27T10:10:28.915Z,101637.95
2018-12-27T10:12:57.404Z,101634.98
2018-12-27T10:15:25.888Z,101633.94
2018-12-27T10:17:54.728Z,101629.34
2018-12-27T10:20:23.210Z,101623.44
2018-12-27T10:22:51.686Z,101625.36
2018-12-27T10:25:39.520Z,101630.31
2018-12-27T10:28:27.351Z,101622.44
2018-12-27T10:30:59.783Z,101618.45
2018-12-27T10:33:45.167Z,101611.80
2018-12-27T10:36:13.647Z,101612.75
2018-12-27T10:38:42.140Z,101607.44
2018-12-27T10:41:29.736Z,101606.08
2018-12-27T10:44:17.567Z,101605.22
2018-12-27T10:46:46.050Z,101602.02
2018-12-27T10:49:33.655Z,101601.31
2018-12-27T10:54:49.574Z,101591.48
2018-12-27T10:57:18.059Z,101591.41
2018-12-27T11:00:05.665Z,101587.97
2018-12-27T11:02:34.143Z,101592.01
2018-12-27T11:05:21.972Z,101582.72
2018-12-27T11:07:50.454Z,101580.62
2018-12-27T11:10:38.190Z,101582.95
2018-12-27T11:13:25.785Z,101577.99
2018-12-27T11:15:54.279Z,101573.95
2018-12-27T11:21:10.209Z,101564.64
2018-12-27T11:23:38.695Z,101570.81
2018-12-27T11:26:26.301Z,101567.39
2018-12-27T11:28:54.783Z,101565.66
2018-12-27T11:31:42.524Z,101564.08
2018-12-27T11:34:30.260Z,101560.28
2018-12-27T11:36:58.739Z,101568.81
2018-12-27T11:42:01.107Z,101565.30
2018-12-27T11:44:48.841Z,101571.77
2018-12-27T11:47:36.440Z,101570.68
2018-12-27T11:50:44.836Z,101576.77
2018-12-27T11:53:32.431Z,101574.12
2018-12-27T11:56:20.264Z,101577.47
2018-12-27T11:58:48.746Z,101578.78
2018-12-27T12:01:36.484Z,101574.06
2018-12-27T12:04:04.971Z,101573.30
2018-12-27T12:06:33.467Z,101575.01
2018-12-27T12:09:21.065Z,101575.80
2018-12-27T12:11:49.553Z,101580.38
2018-12-27T12:14:18.036Z,101577.83
2018-12-27T12:17:05.772Z,101577.52
2018-12-27T12:19:34.250Z,101576.45
2018-12-27T12:22:02.739Z,101570.44
2018-12-27T12:24:31.219Z,101570.02
2018-12-27T12:27:19.039Z,101566.83
2018-12-27T12:30:06.638Z,101572.95
2018-12-27T12:32:35.126Z,101565.53
2018-12-27T12:38:37.711Z,101566.19
2018-12-27T12:41:06.207Z,101563.42
2018-12-27T12:43:54.027Z,101559.78
2018-12-27T12:46:41.767Z,101566.12
2018-12-27T12:49:29.502Z,101558.97
2018-12-27T12:51:57.997Z,101566.28
2018-12-27T12:54:26.480Z,101568.52
2018-12-27T12:57:14.214Z,101567.27
2018-12-27T13:00:01.836Z,101563.56
2018-12-27T13:02:30.328Z,101564.88
2018-12-27T13:04:58.810Z,101570.09
2018-12-27T13:07:46.547Z,101571.73
2018-12-27T13:10:15.027Z,101569.23
2018-12-27T13:13:02.637Z,101568.77
2018-12-27T13:15:31.122Z,101571.60
2018-12-27T13:20:52.684Z,101565.03
2018-12-27T13:23:40.419Z,101572.33
2018-12-27T13:26:08.893Z,101559.13
2018-12-27T13:28:56.631Z,101561.52
2018-12-27T13:31:25.121Z,101560.18
2018-12-27T13:34:12.722Z,101561.03
2018-12-27T13:36:41.212Z,101558.28
2018-12-27T13:39:09.697Z,101554.47
2018-12-27T13:44:51.511Z,101553.84
2018-12-27T13:47:39.121Z,101556.97
2018-12-27T13:50:47.511Z,101555.16
2018-12-27T13:55:49.887Z,101553.88
2018-12-27T13:58:37.634Z,101549.22
2018-12-27T14:04:00.946Z,101553.38
2018-12-27T14:06:32.852Z,101545.52
2018-12-27T14:08:59.636Z,101540.64
2018-12-27T14:11:28.458Z,101537.28
2018-12-27T14:13:56.946Z,101541.00
2018-12-27T14:16:25.426Z,101540.48
2018-12-27T14:18:53.915Z,101543.20
2018-12-27T14:21:41.510Z,101545.17
2018-12-27T14:24:29.340Z,101549.77
2018-12-27T14:27:17.081Z,101546.83
2018-12-27T14:29:45.553Z,101543.94
2018-12-27T14:32:14.049Z,101543.41
2018-12-27T14:35:01.782Z,101547.42
2018-12-27T14:37:30.271Z,101549.44
2018-12-27T14:40:17.998Z,101550.53
2018-12-27T14:42:46.490Z,101548.11
2018-12-27T14:45:14.972Z,101554.11
2018-12-27T14:47:43.480Z,101555.91
2018-12-27T14:50:31.303Z,101559.56
2018-12-27T14:53:18.914Z,101555.41
2018-12-27T14:58:34.848Z,101551.38
2018-12-27T15:01:22.445Z,101551.14
2018-12-27T15:06:47.972Z,101550.39
2018-12-27T15:12:07.822Z,101541.06
2018-12-27T15:14:55.432Z,101546.33
2018-12-27T15:17:43.032Z,101544.46
2018-12-27T15:20:11.519Z,101545.96
2018-12-27T15:22:40.001Z,101544.77
2018-12-27T15:25:08.488Z,101543.38
2018-12-27T15:27:56.306Z,101540.61
2018-12-27T15:33:19.028Z,101540.76
2018-12-27T15:36:06.757Z,101534.80
2018-12-27T15:38:54.363Z,101535.85
2018-12-27T15:41:22.843Z,101528.09
2018-12-27T15:43:51.336Z,101531.53
2018-12-27T15:46:19.823Z,101535.36
2018-12-27T15:49:07.437Z,101543.34
2018-12-27T15:51:35.912Z,101533.14
2018-12-27T15:54:23.522Z,101531.23
2018-12-27T15:57:11.251Z,101532.75
2018-12-27T16:02:13.555Z,101521.52
2018-12-27T16:04:42.050Z,101525.47
2018-12-27T16:07:10.534Z,101530.33
2018-12-27T16:09:58.273Z,101532.02
2018-12-27T16:12:26.759Z,101527.17
2018-12-27T16:14:55.254Z,101530.73
2018-12-27T16:17:43.072Z,101524.84
2018-12-27T16:20:11.561Z,101529.39
2018-12-27T16:22:40.034Z,101527.38
2018-12-27T16:25:08.518Z,101520.73
2018-12-27T16:27:56.115Z,101522.41
2018-12-27T16:30:43.724Z,101521.98
2018-12-27T16:33:12.208Z,101524.29
2018-12-27T16:35:59.942Z,101521.17
2018-12-27T16:38:47.677Z,101529.36
2018-12-27T16:43:51.427Z,101515.83
2018-12-27T16:46:39.164Z,101525.27
2018-12-27T16:49:26.764Z,101518.92
2018-12-27T16:54:42.691Z,101523.36
2018-12-27T16:57:11.179Z,101526.66
2018-12-27T16:59:59.012Z,101523.87
2018-12-27T17:02:46.741Z,101517.70
2018-12-27T17:05:15.225Z,101520.63
2018-12-27T17:08:02.955Z,101514.16
2018-12-27T17:10:31.445Z,101503.91
2018-12-27T17:13:19.175Z,101512.00
2018-12-27T17:16:07.008Z,101526.98
2018-12-27T17:18:35.489Z,101528.91
2018-12-27T17:21:03.981Z,101529.31
2018-12-27T17:23:32.459Z,101530.83
2018-12-27T17:26:20.193Z,101525.61
2018-12-27T17:31:37.765Z,101535.94
2018-12-27T17:34:25.523Z,101532.73
2018-12-27T17:39:27.776Z,101521.27
2018-12-27T17:41:56.267Z,101524.05
2018-12-27T17:44:44.088Z,101525.83
2018-12-27T17:47:12.579Z,101527.86
2018-12-27T17:50:00.308Z,101525.34
2018-12-27T17:52:30.358Z,101528.20
2018-12-27T17:55:18.257Z,101528.08
2018-12-27T17:57:46.739Z,101528.40
2018-12-27T18:00:34.486Z,101527.55
2018-12-27T18:03:22.215Z,101532.59
2018-12-27T18:06:09.902Z,101523.90
2018-12-27T18:08:57.627Z,101527.95
2018-12-27T18:11:45.485Z,101531.49
2018-12-27T18:14:14.044Z,101533.19
2018-12-27T18:16:42.623Z,101536.14
2018-12-27T18:19:11.143Z,101527.20
2018-12-27T18:21:39.689Z,101527.91
2018-12-27T18:24:27.533Z,101522.41
2018-12-27T18:26:56.033Z,101525.23
2018-12-27T18:29:24.576Z,101519.88
2018-12-27T18:32:12.361Z,101520.59
2018-12-27T18:35:00.226Z,101518.25
2018-12-27T18:37:48.160Z,101522.58
2018-12-27T18:40:36.024Z,101521.27
2018-12-27T18:43:04.566Z,101524.98
2018-12-27T18:45:52.307Z,101526.69
2018-12-27T18:48:20.858Z,101525.59
2018-12-27T18:50:49.437Z,101521.06
2018-12-27T18:53:18.077Z,101524.75
2018-12-27T19:01:08.693Z,101530.84
2018-12-27T19:06:10.811Z,101527.86
2018-12-27T19:08:58.518Z,101520.81
2018-12-27T19:12:05.677Z,101523.52
2018-12-27T19:14:34.246Z,101529.63
2018-12-27T19:17:02.792Z,101527.38
2018-12-27T19:19:31.275Z,101530.76
2018-12-27T19:22:19.484Z,101533.81
2018-12-27T19:24:47.963Z,101524.48
2018-12-27T19:27:35.712Z,101527.77
2018-12-27T19:30:44.604Z,101528.59
2018-12-27T19:33:32.214Z,101532.39
2018-12-27T19:39:07.388Z,101545.72
2018-12-27T19:41:35.867Z,101546.93
2018-12-27T19:44:23.608Z,101546.67
2018-12-27T19:47:11.207Z,101545.62
2018-12-27T19:49:39.712Z,101541.84
2018-12-27T19:52:27.442Z,101543.75
2018-12-27T19:55:15.289Z,101536.47
2018-12-27T19:58:03.025Z,101541.52
2018-12-27T20:00:50.625Z,101538.53
2018-12-27T20:03:19.121Z,101526.48
2018-12-27T20:05:47.609Z,101538.62
2018-12-27T20:08:35.211Z,101535.75
2018-12-27T20:13:51.146Z,101536.53
2018-12-27T20:16:38.968Z,101540.04
2018-12-27T20:21:41.454Z,101539.94
2018-12-27T20:24:29.355Z,101538.27
2018-12-27T20:27:17.332Z,101540.83
2018-12-27T20:32:20.426Z,101539.91
2018-12-27T20:34:48.909Z,101543.83
2018-12-27T20:37:36.730Z,101553.70
2018-12-27T20:40:45.147Z,101539.43
2018-12-27T20:43:13.632Z,101548.02
2018-12-27T20:46:01.240Z,101549.55
2018-12-27T20:48:48.980Z,101542.45
2018-12-27T20:59:31.966Z,101530.70
2018-12-27T21:02:19.793Z,101538.56
2018-12-27T21:04:48.279Z,101541.84
2018-12-27T21:07:36.002Z,101539.70
2018-12-27T21:12:59.311Z,101538.72
2018-12-27T21:15:47.048Z,101531.47
2018-12-27T21:18:34.682Z,101521.97
2018-12-27T21:21:03.161Z,101511.51
2018-12-27T21:23:50.990Z,101504.95
2018-12-27T21:29:13.259Z,101514.59
2018-12-27T21:37:22.272Z,101520.88
2018-12-27T21:39:50.763Z,101517.80
2018-12-27T21:42:19.245Z,101517.16
2018-12-27T21:45:07.073Z,101503.70
2018-12-27T21:47:54.798Z,101504.98
2018-12-27T21:50:42.778Z,101505.23
2018-12-27T21:53:11.294Z,101513.81
2018-12-27T21:55:59.069Z,101510.55
2018-12-27T21:58:46.780Z,101504.70
2018-12-27T22:04:08.394Z,101507.33
2018-12-27T22:06:56.132Z,101506.33
2018-12-27T22:09:43.942Z,101498.56
2018-12-27T22:12:12.425Z,101489.12
2018-12-27T22:15:00.232Z,101489.16
2018-12-27T22:17:47.958Z,101491.11
2018-12-27T22:20:16.519Z,101488.77
2018-12-27T22:23:04.256Z,101481.09
2018-12-27T22:28:06.341Z,101474.72
2018-12-27T22:30:54.080Z,101476.14
2018-12-27T22:33:41.674Z,101476.63
2018-12-27T22:36:29.406Z,101479.08
2018-12-27T22:39:17.010Z,101480.11
2018-12-27T22:41:45.499Z,101478.70
2018-12-27T22:44:33.101Z,101479.26
2018-12-27T22:49:35.919Z,101479.05
2018-12-27T22:54:58.100Z,101479.15
2018-12-27T22:57:45.839Z,101484.19
2018-12-27T23:00:52.784Z,101486.14
2018-12-27T23:03:40.602Z,101478.86
2018-12-27T23:06:28.431Z,101490.23
2018-12-27T23:08:57.043Z,101492.78
2018-12-27T23:11:44.653Z,101494.05
2018-12-27T23:14:13.134Z,101495.87
2018-12-27T23:16:41.628Z,101500.58
2018-12-27T23:19:10.115Z,101500.97
2018-12-27T23:21:57.862Z,101506.69
2018-12-27T23:24:45.583Z,101503.63
2018-12-27T23:27:14.075Z,101494.06
2018-12-27T23:32:30.003Z,101506.94
2018-12-27T23:34:58.513Z,101498.30
2018-12-27T23:37:46.337Z,101497.84
2018-12-27T23:40:14.893Z,101491.50
2018-12-27T23:42:43.406Z,101493.52
2018-12-27T23:45:11.889Z,101484.34
2018-12-27T23:47:40.377Z,101481.58
2018-12-27T23:50:08.853Z,101478.35
2018-12-27T23:52:56.458Z,101484.81
2018-12-27T23:58:12.382Z,101488.06
